createdAt,value
2018-11-22T00:00:40.398Z,90.80
2018-11-22T00:03:27.594Z,90.80
2018-11-22T00:06:15.322Z,90.80
2018-11-22T00:09:02.526Z,90.70
2018-11-22T00:11:49.508Z,90.60
2018-11-22T00:14:36.752Z,90.50
2018-11-22T00:17:23.634Z,90.50
2018-11-22T00:20:10.809Z,90.50
2018-11-22T00:22:58.034Z,90.70
2018-11-22T00:25:45.306Z,90.60
2018-11-22T00:28:32.784Z,90.70
2018-11-22T00:31:19.969Z,90.70
2018-11-22T00:34:07.101Z,90.70
2018-11-22T00:36:54.160Z,90.60
2018-11-22T00:39:41.025Z,90.60
2018-11-22T00:42:28.177Z,90.60
2018-11-22T00:45:16.455Z,90.70
2018-11-22T00:48:03.745Z,90.80
2018-11-22T00:50:50.696Z,90.80
2018-11-22T00:53:37.683Z,90.80
2018-11-22T00:56:25.159Z,90.80
2018-11-22T00:59:12.761Z,90.80
2018-11-22T01:01:59.940Z,90.90
2018-11-22T01:04:47.384Z,90.90
2018-11-22T01:07:34.612Z,90.80
2018-11-22T01:10:23.386Z,90.80
2018-11-22T01:13:10.817Z,90.70
2018-11-22T01:15:58.551Z,90.70
2018-11-22T01:18:45.410Z,90.90
2018-11-22T01:21:32.859Z,91.30
2018-11-22T01:24:20.193Z,91.40
2018-11-22T01:27:07.292Z,91.20
2018-11-22T01:29:54.319Z,91.10
2018-11-22T01:32:42.456Z,90.90
2018-11-22T01:35:29.776Z,90.90
2018-11-22T01:38:16.698Z,90.90
2018-11-22T01:41:03.544Z,90.70
2018-11-22T01:43:50.509Z,90.60
2018-11-22T01:46:37.590Z,90.90
2018-11-22T01:49:24.551Z,90.90
2018-11-22T01:52:11.565Z,90.80
2018-11-22T01:54:58.973Z,90.80
2018-11-22T01:57:46.519Z,91.00
2018-11-22T02:00:33.750Z,90.90
2018-11-22T02:03:21.157Z,90.80
2018-11-22T02:06:08.529Z,90.50
2018-11-22T02:08:56.040Z,90.60
2018-11-22T02:11:43.330Z,90.70
2018-11-22T02:14:30.589Z,90.70
2018-11-22T02:17:17.463Z,90.70
2018-11-22T02:20:07.202Z,90.60
2018-11-22T02:22:54.902Z,90.50
2018-11-22T02:25:42.137Z,90.50
2018-11-22T02:28:29.432Z,90.50
2018-11-22T02:31:16.390Z,90.80
2018-11-22T02:34:03.914Z,90.70
2018-11-22T02:36:51.453Z,90.60
2018-11-22T02:39:38.482Z,90.60
2018-11-22T02:42:26.100Z,90.60
2018-11-22T02:45:14.777Z,90.60
2018-11-22T02:48:01.944Z,90.60
2018-11-22T02:50:49.254Z,90.60
2018-11-22T02:53:36.482Z,90.60
2018-11-22T02:56:24.551Z,90.60
2018-11-22T02:59:11.721Z,90.70
2018-11-22T03:01:58.838Z,90.60
2018-11-22T03:04:45.667Z,90.60
2018-11-22T03:07:33.129Z,90.60
2018-11-22T03:10:20.382Z,90.70
2018-11-22T03:13:08.257Z,90.70
2018-11-22T03:15:55.816Z,90.60
2018-11-22T03:18:43.055Z,90.60
2018-11-22T03:21:30.068Z,90.70
2018-11-22T03:24:16.970Z,90.60
2018-11-22T03:27:04.239Z,90.60
2018-11-22T03:29:51.235Z,90.60
2018-11-22T03:32:38.566Z,90.60
2018-11-22T03:35:26.736Z,90.60
2018-11-22T03:38:13.979Z,90.70
2018-11-22T03:41:00.895Z,90.90
2018-11-22T03:43:47.894Z,90.90
2018-11-22T03:46:35.180Z,90.80
2018-11-22T03:49:22.064Z,90.80
2018-11-22T03:52:09.082Z,90.80
2018-11-22T03:54:56.085Z,90.90
2018-11-22T03:57:43.114Z,90.90
2018-11-22T04:00:31.033Z,91.00
2018-11-22T04:03:18.440Z,91.10
2018-11-22T04:06:05.817Z,91.20
2018-11-22T04:08:53.125Z,91.60
2018-11-22T04:11:40.573Z,91.70
2018-11-22T04:14:28.173Z,91.70
2018-11-22T04:17:15.173Z,91.80
2018-11-22T04:20:02.329Z,91.80
2018-11-22T04:22:49.500Z,91.60
2018-11-22T04:25:36.483Z,91.50
2018-11-22T04:28:23.995Z,91.40
2018-11-22T04:31:10.966Z,91.60
2018-11-22T04:33:58.016Z,91.60
2018-11-22T04:36:44.936Z,91.50
2018-11-22T04:39:32.195Z,91.50
2018-11-22T04:42:19.406Z,91.50
2018-11-22T04:45:07.244Z,91.60
2018-11-22T04:47:55.359Z,91.50
2018-11-22T04:50:42.812Z,91.50
2018-11-22T04:53:29.874Z,91.40
2018-11-22T04:56:17.125Z,91.30
2018-11-22T04:59:04.680Z,91.30
2018-11-22T05:01:51.542Z,91.40
2018-11-22T05:04:39.225Z,91.30
2018-11-22T05:07:26.054Z,91.30
2018-11-22T05:10:15.253Z,91.30
2018-11-22T05:13:02.846Z,91.30
2018-11-22T05:15:49.955Z,91.30
2018-11-22T05:18:37.146Z,91.50
2018-11-22T05:21:24.571Z,91.60
2018-11-22T05:24:11.770Z,91.60
2018-11-22T05:26:58.682Z,91.70
2018-11-22T05:29:45.668Z,91.60
2018-11-22T05:32:35.332Z,91.60
2018-11-22T05:35:20.795Z,91.70
2018-11-22T12:18:23.477Z,32.20
2018-11-22T12:20:58.500Z,32.40
2018-11-22T12:23:33.709Z,32.20
2018-11-22T12:26:08.954Z,32.40
2018-11-22T12:28:44.095Z,31.90
2018-11-22T12:31:19.224Z,32.10
2018-11-22T12:33:59.703Z,32.40
2018-11-22T12:36:40.113Z,33.40
2018-11-22T12:39:15.992Z,33.90
2018-11-22T12:41:51.106Z,34.20
2018-11-22T12:44:26.242Z,33.30
2018-11-22T12:47:01.384Z,32.40
2018-11-22T12:49:36.431Z,33.10
2018-11-22T12:52:11.958Z,32.90
2018-11-22T12:54:47.634Z,31.80
2018-11-22T12:57:22.810Z,33.40
2018-11-22T12:59:58.187Z,33.40
2018-11-22T13:02:33.602Z,35.80
2018-11-22T13:05:10.284Z,35.10
2018-11-22T13:07:45.505Z,36.00
2018-11-22T13:10:20.979Z,35.90
2018-11-22T13:12:56.519Z,35.00
2018-11-22T13:15:32.022Z,34.50
2018-11-22T13:18:07.364Z,33.60
2018-11-22T13:20:42.534Z,33.20
2018-11-22T13:23:17.555Z,34.00
2018-11-22T13:25:52.659Z,33.20
2018-11-22T13:28:27.990Z,34.00
2018-11-22T13:31:02.970Z,33.10
2018-11-22T13:33:38.001Z,33.80
2018-11-22T13:36:13.212Z,33.20
2018-11-22T13:38:48.196Z,33.70
2018-11-22T13:41:24.087Z,32.90
2018-11-22T13:43:59.425Z,32.40
2018-11-22T13:46:34.502Z,32.40
2018-11-22T13:49:09.705Z,32.70
2018-11-22T13:51:44.950Z,32.50
2018-11-22T13:54:20.712Z,32.80
2018-11-22T13:56:55.559Z,32.80
2018-11-22T13:59:30.966Z,32.60
2018-11-22T14:02:06.545Z,32.90
2018-11-22T14:04:41.832Z,32.90
2018-11-22T14:07:17.397Z,32.80
2018-11-22T14:09:52.558Z,32.60
2018-11-22T14:12:27.913Z,33.70
2018-11-22T14:15:03.702Z,35.20
2018-11-22T14:17:39.466Z,36.40
2018-11-22T14:20:16.478Z,37.50
2018-11-22T14:22:51.972Z,39.00
2018-11-22T14:25:27.674Z,40.50
2018-11-22T14:28:03.064Z,41.80
2018-11-22T14:30:38.323Z,43.00
2018-11-22T14:33:13.771Z,43.60
2018-11-22T14:35:49.097Z,44.20
2018-11-22T14:38:24.473Z,45.20
2018-11-22T14:40:59.389Z,45.70
2018-11-22T14:43:34.194Z,46.30
2018-11-22T14:46:08.990Z,46.90
2018-11-22T14:48:43.730Z,47.50
2018-11-22T14:51:25.556Z,48.10
2018-11-22T14:54:00.447Z,48.60
2018-11-22T14:56:35.979Z,49.60
2018-11-22T14:59:10.966Z,50.20
2018-11-22T15:01:45.656Z,50.80
2018-11-22T15:04:20.605Z,51.30
2018-11-22T15:06:55.326Z,52.10
2018-11-22T15:09:30.726Z,53.50
2018-11-22T15:12:05.808Z,53.80
2018-11-22T15:14:41.808Z,54.20
2018-11-22T15:17:16.795Z,54.20
2018-11-22T15:19:51.631Z,54.20
2018-11-22T15:22:26.323Z,55.10
2018-11-22T15:25:01.145Z,55.50
2018-11-22T15:27:36.996Z,56.00
2018-11-22T15:30:13.711Z,56.70
2018-11-22T15:32:49.764Z,57.30
2018-11-22T15:35:26.018Z,58.10
2018-11-22T15:38:01.600Z,58.60
2018-11-22T15:40:36.718Z,59.00
2018-11-22T15:43:11.731Z,58.90
2018-11-22T15:45:47.189Z,59.20
2018-11-22T15:48:22.628Z,60.00
2018-11-22T15:50:57.920Z,62.90
2018-11-22T15:53:32.872Z,64.30
2018-11-22T15:56:07.475Z,66.00
2018-11-22T15:58:43.047Z,65.70
2018-11-22T16:01:17.834Z,65.40
2018-11-22T16:03:53.640Z,65.10
2018-11-22T16:06:28.905Z,65.60
2018-11-22T16:09:06.374Z,65.90
2018-11-22T16:11:41.735Z,66.00
2018-11-22T16:14:16.603Z,65.10
2018-11-22T16:16:51.483Z,64.40
2018-11-22T16:19:26.566Z,65.30
2018-11-22T16:22:01.586Z,65.20
2018-11-22T16:24:36.599Z,65.50
2018-11-22T16:27:12.044Z,66.10
2018-11-22T16:29:47.135Z,65.90
2018-11-22T16:32:22.241Z,65.80
2018-11-22T16:34:57.708Z,66.40
2018-11-22T16:37:32.598Z,66.60
2018-11-22T16:40:10.566Z,67.50
2018-11-22T16:42:46.697Z,68.10
2018-11-22T16:45:28.834Z,68.00
2018-11-22T16:48:05.454Z,68.80
2018-11-22T16:50:41.239Z,67.40
2018-11-22T16:53:16.110Z,67.60
2018-11-22T16:55:51.219Z,68.90
2018-11-22T16:58:26.115Z,69.60
2018-11-22T17:01:01.513Z,70.30
2018-11-22T17:03:37.586Z,70.10
2018-11-22T17:06:12.299Z,70.40
2018-11-22T17:08:47.479Z,70.20
2018-11-22T17:11:23.333Z,71.60
2018-11-22T17:13:58.183Z,71.10
2018-11-22T17:16:33.732Z,71.70
2018-11-22T17:19:08.551Z,72.60
2018-11-22T17:21:44.033Z,71.50
2018-11-22T17:24:19.258Z,71.10
2018-11-22T17:26:54.393Z,71.70
2018-11-22T17:29:30.028Z,72.80
2018-11-22T17:32:05.196Z,73.50
2018-11-22T17:34:40.488Z,73.70
2018-11-22T17:37:15.464Z,74.60
2018-11-22T17:39:50.267Z,74.90
2018-11-22T17:42:25.020Z,75.60
2018-11-22T17:45:00.477Z,74.60
2018-11-22T17:47:35.759Z,73.10
2018-11-22T17:50:13.148Z,73.40
2018-11-22T17:52:48.433Z,73.60
2018-11-22T17:55:25.449Z,73.70
2018-11-22T17:58:00.598Z,74.30
2018-11-22T18:00:37.073Z,74.60
2018-11-22T18:03:12.235Z,75.60
2018-11-22T18:05:47.856Z,76.30
2018-11-22T18:08:22.776Z,76.80
2018-11-22T18:10:57.992Z,76.70
2018-11-22T18:13:33.905Z,76.80
2018-11-22T18:16:08.937Z,77.10
2018-11-22T18:18:43.869Z,77.40
2018-11-22T18:21:19.288Z,77.90
2018-11-22T18:23:54.292Z,78.30
2018-11-22T18:26:29.257Z,78.20
2018-11-22T18:29:04.505Z,78.40
2018-11-22T18:31:39.188Z,78.40
2018-11-22T18:34:14.411Z,79.10
2018-11-22T18:36:49.731Z,79.20
2018-11-22T18:39:24.711Z,79.40
2018-11-22T18:42:00.498Z,79.50
2018-11-22T18:44:35.759Z,80.00
2018-11-22T18:47:10.760Z,80.70
2018-11-22T18:49:46.714Z,80.70
2018-11-22T18:52:21.826Z,80.70
2018-11-22T18:54:56.756Z,81.00
2018-11-22T18:57:31.627Z,81.50
2018-11-22T19:00:14.338Z,82.20
2018-11-22T19:02:49.627Z,81.90
2018-11-22T19:05:24.895Z,82.70
2018-11-22T19:08:00.505Z,82.70
2018-11-22T19:10:37.117Z,82.50
2018-11-22T19:13:12.614Z,82.80
2018-11-22T19:15:48.273Z,83.20
2018-11-22T19:18:23.157Z,83.00
2018-11-22T19:20:58.411Z,83.50
2018-11-22T19:23:33.944Z,82.70
2018-11-22T19:26:09.013Z,83.10
2018-11-22T19:28:43.723Z,83.60
2018-11-22T19:31:19.302Z,83.50
2018-11-22T19:33:54.301Z,83.10
2018-11-22T19:36:29.161Z,83.10
2018-11-22T19:39:05.693Z,83.40
2018-11-22T19:41:40.532Z,83.50
2018-11-22T19:44:15.432Z,83.00
2018-11-22T19:46:50.291Z,84.10
2018-11-22T19:49:25.807Z,83.40
2018-11-22T19:52:00.976Z,83.80
2018-11-22T19:54:35.860Z,84.00
2018-11-22T19:57:10.785Z,84.30
2018-11-22T19:59:45.646Z,84.30
2018-11-22T20:02:20.515Z,84.70
2018-11-22T20:04:55.393Z,85.00
2018-11-22T20:07:31.128Z,84.40
2018-11-22T20:10:08.960Z,85.20
2018-11-22T20:12:43.830Z,84.60
2018-11-22T20:15:19.066Z,85.10
2018-11-22T20:17:54.601Z,86.60
2018-11-22T20:20:29.593Z,85.30
2018-11-22T20:23:04.484Z,86.20
2018-11-22T20:25:39.729Z,85.80
2018-11-22T20:28:15.211Z,85.70
2018-11-22T20:30:50.332Z,85.60
2018-11-22T20:33:25.261Z,85.40
2018-11-22T20:36:00.737Z,85.60
2018-11-22T20:38:35.166Z,85.40
2018-11-22T20:41:10.050Z,85.40
2018-11-22T20:43:44.941Z,85.50
2018-11-22T20:46:20.303Z,85.20
2018-11-22T20:48:55.093Z,84.80
2018-11-22T20:51:30.011Z,84.90
2018-11-22T20:54:05.426Z,85.00
2018-11-22T20:56:41.102Z,85.30
2018-11-22T20:59:16.044Z,85.10
2018-11-22T21:01:51.779Z,85.10
2018-11-22T21:04:25.927Z,84.80
2018-11-22T21:07:00.799Z,85.10
2018-11-22T21:09:35.549Z,85.40
2018-11-22T21:12:10.340Z,85.00
2018-11-22T21:14:45.548Z,84.80
2018-11-22T21:17:20.622Z,85.10
2018-11-22T21:19:56.689Z,85.50
2018-11-22T21:22:31.558Z,85.60
2018-11-22T21:25:08.700Z,85.10
2018-11-22T21:27:43.719Z,84.90
2018-11-22T21:30:21.360Z,85.60
2018-11-22T21:32:56.934Z,85.60
2018-11-22T21:35:32.076Z,85.40
2018-11-22T21:38:07.918Z,85.10
2018-11-22T21:40:42.902Z,85.10
2018-11-22T21:43:17.690Z,85.30
2018-11-22T21:45:52.689Z,85.80
2018-11-22T21:48:27.465Z,85.60
2018-11-22T21:51:02.358Z,85.60
2018-11-22T21:53:37.260Z,85.30
2018-11-22T21:56:12.253Z,85.80
2018-11-22T21:58:47.423Z,86.40
2018-11-22T22:01:22.192Z,85.90
2018-11-22T22:03:57.081Z,85.80
2018-11-22T22:06:31.955Z,85.60
2018-11-22T22:09:08.630Z,85.70
2018-11-22T22:11:43.651Z,85.40
2018-11-22T22:14:18.239Z,85.10
2018-11-22T22:16:53.325Z,85.20
2018-11-22T22:19:28.414Z,85.60
2018-11-22T22:22:03.227Z,86.10
2018-11-22T22:24:38.159Z,86.80
2018-11-22T22:27:12.822Z,86.90
2018-11-22T22:29:47.992Z,86.40
2018-11-22T22:32:22.930Z,86.50
2018-11-22T22:34:57.687Z,87.20
2018-11-22T22:37:32.380Z,87.10
2018-11-22T22:40:11.532Z,86.20
2018-11-22T22:42:47.491Z,85.60
2018-11-22T22:45:23.427Z,86.40
2018-11-22T22:47:58.524Z,86.90
2018-11-22T22:50:33.655Z,85.90
2018-11-22T22:53:08.545Z,86.20
2018-11-22T22:55:43.451Z,86.40
2018-11-22T22:58:18.292Z,86.50
2018-11-22T23:00:53.880Z,86.60
2018-11-22T23:03:30.130Z,86.60
2018-11-22T23:06:05.733Z,86.50
2018-11-22T23:08:40.810Z,87.10
2018-11-22T23:11:16.411Z,87.20
2018-11-22T23:13:51.402Z,87.50
2018-11-22T23:16:26.349Z,87.00
2018-11-22T23:19:01.101Z,86.90
2018-11-22T23:21:36.022Z,86.90
2018-11-22T23:24:11.035Z,87.40
2018-11-22T23:26:45.775Z,86.70
2018-11-22T23:29:21.127Z,87.30
2018-11-22T23:31:56.501Z,87.70
2018-11-22T23:34:31.635Z,87.10
2018-11-22T23:37:06.479Z,86.50
2018-11-22T23:39:41.340Z,87.40
2018-11-22T23:42:16.314Z,87.30
2018-11-22T23:44:50.908Z,87.00
2018-11-22T23:47:26.295Z,86.80
2018-11-22T23:50:01.161Z,86.50
2018-11-22T23:52:36.030Z,86.80
2018-11-22T23:55:11.976Z,87.00
2018-11-22T23:57:47.073Z,87.00
